Time;durP1;ratioP1;P1;durP2;ratioP2;P2;SDS_P1;SDS_P2;PMS_P1;PMS_P2;Temp;Humidity;BMP_temperature;BMP_pressure;BME280_temperature;BME280_humidity;BME280_pressure;Samples;Min_cycle;Max_cycle;Signal;HPM_P1;HPM_P2
2022/12/10 00:01:51;;;;;;;59.90;24.87;;;-2.10;99.90;;;;;;5126651;27;20039;-74
2022/12/10 00:04:18;;;;;;;59.37;24.30;;;-2.10;99.90;;;;;;5107242;27;20035;-75
2022/12/10 00:06:44;;;;;;;55.77;24.60;;;-2.10;99.90;;;;;;5107700;27;21292;-75
2022/12/10 00:09:13;;;;;;;55.23;24.80;;;-2.10;99.90;;;;;;5109770;27;20031;-75
2022/12/10 00:11:39;;;;;;;55.07;23.33;;;-2.20;99.90;;;;;;5099181;28;20035;-75
2022/12/10 00:14:06;;;;;;;52.50;23.37;;;-2.20;99.90;;;;;;5098752;27;20039;-75
2022/12/10 00:16:33;;;;;;;55.10;23.33;;;-2.20;99.90;;;;;;5103098;27;20042;-75
2022/12/10 00:18:59;;;;;;;59.47;24.30;;;-2.20;99.90;;;;;;5087407;28;20036;-74
2022/12/10 00:21:30;;;;;;;57.97;25.30;;;-2.20;99.90;;;;;;5097589;27;20046;-75
2022/12/10 00:23:57;;;;;;;57.27;24.63;;;-2.20;99.90;;;;;;5109990;27;20038;-75
2022/12/10 00:26:25;;;;;;;56.93;25.37;;;-2.30;99.90;;;;;;5105007;27;20043;-76
2022/12/10 00:28:52;;;;;;;53.23;22.60;;;-2.30;99.90;;;;;;5110835;27;20035;-75
2022/12/10 00:31:20;;;;;;;54.13;23.23;;;-2.30;99.90;;;;;;5097365;27;20055;-74
2022/12/10 00:33:46;;;;;;;56.80;23.77;;;-2.30;99.90;;;;;;5109060;27;20066;-75
2022/12/10 00:36:25;;;;;;;62.70;26.27;;;-2.30;99.90;;;;;;5095974;27;20119;-75
2022/12/10 00:38:51;;;;;;;55.40;24.87;;;-2.30;99.90;;;;;;5106748;27;20035;-75
2022/12/10 00:41:17;;;;;;;56.00;24.93;;;-2.30;99.90;;;;;;5108002;27;20039;-75
2022/12/10 00:43:43;;;;;;;56.17;25.10;;;-2.30;99.90;;;;;;5093219;27;20118;-75
2022/12/10 00:46:09;;;;;;;57.00;25.20;;;-2.30;99.90;;;;;;5111099;27;20094;-75
2022/12/10 00:48:35;;;;;;;58.37;25.03;;;-2.30;99.90;;;;;;5112404;27;20571;-75
2022/12/10 00:51:10;;;;;;;62.23;26.07;;;-2.30;99.90;;;;;;5100835;28;20074;-74
2022/12/10 00:53:37;;;;;;;61.10;25.97;;;-2.30;99.90;;;;;;5103915;27;20055;-75
2022/12/10 00:56:04;;;;;;;59.07;27.10;;;-2.30;99.90;;;;;;5108927;28;20047;-75
2022/12/10 00:58:31;;;;;;;67.40;28.80;;;-2.30;99.90;;;;;;5111021;27;20492;-76
2022/12/10 01:01:18;;;;;;;62.57;25.13;;;-2.30;99.90;;;;;;5102820;28;20156;-75
2022/12/10 01:03:45;;;;;;;67.03;26.87;;;-2.20;99.90;;;;;;5108306;27;20049;-75
2022/12/10 01:06:19;;;;;;;69.47;27.53;;;-2.20;99.90;;;;;;5112273;27;20087;-75
2022/12/10 01:08:46;;;;;;;63.07;27.23;;;-2.30;99.90;;;;;;5108422;27;20031;-75
2022/12/10 01:11:13;;;;;;;67.03;27.87;;;-2.20;99.90;;;;;;5106069;27;20034;-75
2022/12/10 01:13:40;;;;;;;66.83;27.27;;;-2.20;99.90;;;;;;5102054;27;20035;-75
2022/12/10 01:16:07;;;;;;;69.33;29.17;;;-2.20;99.90;;;;;;5107361;28;20036;-75
2022/12/10 01:18:33;;;;;;;67.23;26.97;;;-2.20;99.90;;;;;;5106869;27;20484;-75
2022/12/10 01:21:08;;;;;;;67.47;27.17;;;-2.20;99.90;;;;;;5086881;27;20104;-74
2022/12/10 01:23:35;;;;;;;65.20;26.47;;;-2.20;99.90;;;;;;5095522;28;20071;-75
2022/12/10 01:26:03;;;;;;;61.33;25.97;;;-2.20;99.90;;;;;;5082422;28;20080;-74
2022/12/10 01:28:30;;;;;;;68.80;27.20;;;-2.30;99.90;;;;;;5106815;27;20113;-75
2022/12/10 01:31:00;;;;;;;64.77;27.37;;;-2.30;99.90;;;;;;5104237;28;20405;-75
2022/12/10 01:33:25;;;;;;;63.17;26.43;;;-2.40;99.90;;;;;;5105345;27;20035;-75
2022/12/10 01:35:51;;;;;;;65.03;26.27;;;-2.40;99.90;;;;;;5100488;28;20046;-76
2022/12/10 01:38:16;;;;;;;65.70;28.63;;;-2.40;99.90;;;;;;5108192;27;20035;-76
2022/12/10 01:40:42;;;;;;;70.87;27.10;;;-2.40;99.90;;;;;;5112413;27;20381;-75
2022/12/10 01:43:13;;;;;;;71.13;28.27;;;-2.40;99.90;;;;;;5110631;28;20039;-75
2022/12/10 01:45:39;;;;;;;66.67;27.60;;;-2.40;99.90;;;;;;5084688;28;20143;-75
2022/12/10 01:48:05;;;;;;;69.07;28.30;;;-2.50;99.90;;;;;;5109192;28;20054;-75
2022/12/10 01:50:30;;;;;;;65.20;27.57;;;-2.50;99.90;;;;;;5106456;28;20070;-75
2022/12/10 01:52:56;;;;;;;66.57;26.83;;;-2.40;99.90;;;;;;5103959;28;20031;-75
2022/12/10 01:55:45;;;;;;;67.27;29.03;;;-2.40;99.90;;;;;;5105556;28;20400;-75
2022/12/10 01:58:12;;;;;;;62.73;25.93;;;-2.40;99.90;;;;;;5102655;27;20061;-75
2022/12/10 02:00:44;;;;;;;62.47;26.50;;;-2.40;99.90;;;;;;5104985;28;20074;-75
2022/12/10 02:03:18;;;;;;;68.63;28.00;;;-2.40;99.90;;;;;;5107625;27;20042;-75
2022/12/10 02:06:02;;;;;;;64.72;25.95;;;-2.40;99.90;;;;;;5094601;27;20501;-76
2022/12/10 02:08:37;;;;;;;69.47;26.45;;;-2.50;99.90;;;;;;5105255;27;20035;-76
2022/12/10 02:11:24;;;;;;;63.80;26.70;;;-2.50;99.90;;;;;;5108287;28;20475;-75
2022/12/10 02:14:02;;;;;;;60.50;26.00;;;-2.50;99.90;;;;;;5110751;27;20061;-76
2022/12/10 02:16:37;;;;;;;64.00;28.47;;;-2.50;99.90;;;;;;5106900;27;20043;-76
2022/12/10 02:19:37;;;;;;;66.70;27.53;;;-2.60;99.90;;;;;;5111568;27;20035;-76
2022/12/10 02:22:05;;;;;;;62.07;27.07;;;-2.60;99.90;;;;;;5108296;27;20042;-75
2022/12/10 02:24:34;;;;;;;65.93;28.47;;;-2.50;99.90;;;;;;5101771;27;20035;-76
2022/12/10 02:27:26;;;;;;;64.73;27.60;;;-2.50;99.90;;;;;;5092478;28;20114;-76
2022/12/10 02:29:54;;;;;;;63.87;28.10;;;-2.50;99.90;;;;;;5103504;28;20043;-76
2022/12/10 02:32:24;;;;;;;68.00;28.30;;;-2.50;99.90;;;;;;5110768;27;20071;-76
2022/12/10 02:34:53;;;;;;;64.87;28.10;;;-2.50;99.90;;;;;;5090460;28;20035;-76
2022/12/10 02:37:26;;;;;;;67.83;29.50;;;-2.50;99.90;;;;;;5114401;27;20039;-76
2022/12/10 02:39:55;;;;;;;65.03;29.05;;;-2.50;99.90;;;;;;5109420;27;20042;-76
2022/12/10 02:42:23;;;;;;;68.50;27.83;;;-2.50;99.90;;;;;;5115530;27;20046;-76
2022/12/10 02:44:49;;;;;;;69.77;28.30;;;-2.50;99.90;;;;;;5110508;27;20065;-76
2022/12/10 02:47:18;;;;;;;71.83;29.43;;;-2.50;99.90;;;;;;5095018;27;20080;-76
2022/12/10 02:49:47;;;;;;;76.67;31.60;;;-2.50;99.90;;;;;;5109275;27;20035;-76
2022/12/10 02:52:17;;;;;;;69.47;29.07;;;-2.60;99.90;;;;;;5095335;27;20035;-76
2022/12/10 02:54:45;;;;;;;69.63;29.10;;;-2.50;99.90;;;;;;5101658;27;20492;-76
2022/12/10 02:57:27;;;;;;;73.10;30.23;;;-2.50;99.90;;;;;;5114067;28;20042;-76
2022/12/10 03:00:08;;;;;;;72.13;29.23;;;-2.60;99.90;;;;;;5106897;28;20032;-76
2022/12/10 03:02:43;;;;;;;76.77;28.93;;;-2.60;99.90;;;;;;5082663;28;20168;-76
2022/12/10 03:05:18;;;;;;;64.13;27.77;;;-2.60;99.90;;;;;;5109605;28;20047;-76
2022/12/10 03:07:55;;;;;;;77.90;28.20;;;-2.60;99.90;;;;;;5105294;28;20031;-76
2022/12/10 03:10:28;;;;;;;72.57;29.17;;;-2.60;99.90;;;;;;5108204;28;20077;-76
2022/12/10 03:12:59;;;;;;;68.13;27.58;;;-2.60;99.90;;;;;;5092949;28;20110;-76
2022/12/10 03:15:27;;;;;;;63.83;27.73;;;-2.70;99.90;;;;;;5101816;28;20096;-76
2022/12/10 03:17:55;;;;;;;69.70;29.10;;;-2.70;99.90;;;;;;5105937;28;20526;-76
2022/12/10 03:20:23;;;;;;;65.80;28.50;;;-2.70;99.90;;;;;;5097943;28;20039;-74
2022/12/10 03:22:49;;;;;;;76.97;30.77;;;-2.70;99.90;;;;;;5110749;28;20494;-76
2022/12/10 03:25:23;;;;;;;72.83;29.37;;;-2.70;99.90;;;;;;5088383;28;20071;-76
2022/12/10 03:27:51;;;;;;;68.43;28.50;;;-2.70;99.90;;;;;;5109897;28;20034;-75
2022/12/10 03:30:16;;;;;;;69.50;28.13;;;-2.70;99.90;;;;;;5102729;28;20037;-76
2022/12/10 03:32:44;;;;;;;79.67;28.97;;;-2.70;99.90;;;;;;5110449;28;20034;-75
2022/12/10 03:35:11;;;;;;;76.53;32.00;;;-2.70;99.90;;;;;;5104604;28;20133;-75
2022/12/10 03:37:37;;;;;;;64.40;28.00;;;-2.70;99.90;;;;;;5103342;28;20047;-74
2022/12/10 03:40:05;;;;;;;67.13;28.33;;;-2.80;99.90;;;;;;5106105;28;20032;-75
2022/12/10 03:42:30;;;;;;;71.73;29.77;;;-2.80;99.90;;;;;;5111545;28;20092;-76
2022/12/10 03:44:56;;;;;;;75.20;31.07;;;-2.70;99.90;;;;;;5095708;28;20043;-75
2022/12/10 03:47:23;;;;;;;69.00;28.87;;;-2.70;99.90;;;;;;5111776;28;20042;-75
2022/12/10 03:49:49;;;;;;;67.37;27.90;;;-2.70;99.90;;;;;;5091673;28;20075;-76
2022/12/10 03:52:14;;;;;;;74.83;29.83;;;-2.80;99.90;;;;;;5112014;28;20546;-76
2022/12/10 03:54:40;;;;;;;70.33;29.07;;;-2.80;99.90;;;;;;5108666;28;20027;-75
2022/12/10 03:57:06;;;;;;;68.40;28.90;;;-2.80;99.90;;;;;;5049176;27;1155033;-75
2022/12/10 03:59:31;;;;;;;70.27;29.43;;;-2.90;99.90;;;;;;5093238;28;20497;-76
2022/12/10 04:01:57;;;;;;;65.97;27.60;;;-2.90;99.90;;;;;;5103192;28;20081;-76
2022/12/10 04:04:22;;;;;;;62.10;27.03;;;-3.00;99.90;;;;;;5107757;27;20082;-75
2022/12/10 04:06:48;;;;;;;68.30;28.87;;;-3.00;99.90;;;;;;5101347;27;20067;-75
2022/12/10 04:09:15;;;;;;;73.87;27.63;;;-3.00;99.90;;;;;;5105571;27;20031;-75
2022/12/10 04:11:41;;;;;;;63.57;28.03;;;-3.00;99.90;;;;;;5104513;28;20041;-75
2022/12/10 04:16:53;;;;;;;67.40;28.20;;;-3.10;99.90;;;;;;5106075;27;20054;-75
2022/12/10 04:19:19;;;;;;;66.70;28.03;;;-3.10;99.90;;;;;;5105355;27;20051;-75
2022/12/10 04:27:37;;;;;;;62.93;25.63;;;-3.20;99.90;;;;;;5108905;27;20047;-75
2022/12/10 04:30:05;;;;;;;65.13;26.47;;;-3.20;99.90;;;;;;5112366;27;20038;-75
2022/12/10 04:32:32;;;;;;;58.70;25.50;;;-3.20;99.90;;;;;;5119548;27;20552;-76
2022/12/10 04:34:58;;;;;;;64.27;27.10;;;-3.20;99.90;;;;;;5113839;27;20039;-75
2022/12/10 04:37:24;;;;;;;64.23;24.43;;;-3.30;99.90;;;;;;5114486;27;20043;-74
2022/12/10 04:39:51;;;;;;;63.33;25.83;;;-3.30;99.90;;;;;;5098589;28;20110;-75
2022/12/10 04:42:17;;;;;;;69.03;27.03;;;-3.40;99.90;;;;;;5106737;27;20035;-75
2022/12/10 04:44:42;;;;;;;64.80;25.43;;;-3.40;99.90;;;;;;5094373;27;20612;-75
2022/12/10 04:47:09;;;;;;;63.00;26.90;;;-3.40;99.90;;;;;;5113823;27;20031;-75
2022/12/10 04:49:36;;;;;;;68.83;27.13;;;-3.40;99.90;;;;;;5107232;27;20042;-75
2022/12/10 04:52:02;;;;;;;70.17;27.53;;;-3.30;99.90;;;;;;5107249;27;20051;-74
2022/12/10 04:54:28;;;;;;;68.30;26.40;;;-3.20;99.90;;;;;;5113067;27;20031;-75
2022/12/10 04:56:54;;;;;;;74.87;29.47;;;-3.20;99.90;;;;;;5109222;27;20047;-75
2022/12/10 04:59:19;;;;;;;69.50;29.43;;;-3.10;99.90;;;;;;5108368;27;20046;-75
2022/12/10 05:01:45;;;;;;;69.47;29.50;;;-3.00;99.90;;;;;;5111450;27;20043;-75
2022/12/10 05:04:13;;;;;;;80.53;31.27;;;-2.90;99.90;;;;;;5106088;27;20592;-76
2022/12/10 05:06:39;;;;;;;72.90;28.77;;;-2.80;99.90;;;;;;5110627;27;20057;-75
2022/12/10 05:09:05;;;;;;;87.23;31.70;;;-2.80;99.90;;;;;;5104480;27;20534;-75
2022/12/10 05:11:32;;;;;;;83.30;30.23;;;-2.70;99.90;;;;;;5106345;27;20113;-75
2022/12/10 05:13:59;;;;;;;83.97;31.93;;;-2.60;99.90;;;;;;5102647;28;20542;-73
2022/12/10 05:16:26;;;;;;;93.47;33.27;;;-2.60;99.90;;;;;;5107398;27;20050;-76
2022/12/10 05:18:53;;;;;;;88.73;31.83;;;-2.60;99.90;;;;;;5105480;28;20068;-76
2022/12/10 05:21:21;;;;;;;87.60;31.13;;;-2.50;99.90;;;;;;5097767;28;20108;-76
2022/12/10 05:23:48;;;;;;;87.97;31.33;;;-2.40;99.90;;;;;;5092566;27;20031;-77
2022/12/10 05:26:23;;;;;;;94.80;32.17;;;-2.40;99.90;;;;;;5110839;27;20042;-77
2022/12/10 05:28:54;;;;;;;77.13;30.90;;;-2.30;99.90;;;;;;5102414;28;20035;-75
2022/12/10 05:31:25;;;;;;;92.33;32.37;;;-2.30;99.90;;;;;;5087324;27;20114;-77
2022/12/10 05:33:52;;;;;;;95.37;32.43;;;-2.20;99.90;;;;;;5088059;27;20031;-77
2022/12/10 05:36:20;;;;;;;103.27;32.53;;;-2.20;99.90;;;;;;5087251;27;20050;-77
2022/12/10 05:38:47;;;;;;;91.50;32.07;;;-2.20;99.90;;;;;;5110087;27;20047;-77
2022/12/10 05:41:15;;;;;;;112.30;33.23;;;-2.20;99.90;;;;;;5106605;28;20163;-77
2022/12/10 05:43:42;;;;;;;108.87;34.13;;;-2.20;99.90;;;;;;5090999;27;20031;-76
2022/12/10 05:46:11;;;;;;;104.97;33.93;;;-2.20;99.90;;;;;;5101754;27;20386;-77
2022/12/10 05:48:37;;;;;;;105.40;32.53;;;-2.20;99.90;;;;;;5089938;28;20189;-77
2022/12/10 05:51:23;;;;;;;109.67;33.30;;;-2.20;99.90;;;;;;5099061;28;20447;-77
2022/12/10 05:53:49;;;;;;;102.07;31.57;;;-2.20;99.90;;;;;;5102760;28;20032;-76
2022/12/10 05:56:18;;;;;;;112.57;33.10;;;-2.10;99.90;;;;;;5111969;28;20042;-77
2022/12/10 05:58:45;;;;;;;99.83;32.03;;;-2.10;99.90;;;;;;5092313;28;20442;-77
2022/12/10 06:01:17;;;;;;;99.97;31.40;;;-2.10;99.90;;;;;;5115748;28;20039;-75
2022/12/10 06:03:43;;;;;;;85.03;28.90;;;-2.10;99.90;;;;;;5086216;28;20160;-77
2022/12/10 06:06:09;;;;;;;131.47;34.33;;;-2.10;99.90;;;;;;5109157;28;20126;-77
2022/12/10 06:08:35;;;;;;;112.87;32.77;;;-2.10;99.90;;;;;;5105476;28;20038;-77
2022/12/10 06:11:06;;;;;;;119.23;33.90;;;-2.10;99.90;;;;;;5108833;28;20093;-76
2022/12/10 06:13:32;;;;;;;129.10;33.10;;;-2.10;99.90;;;;;;5083023;28;20031;-76
2022/12/10 06:15:58;;;;;;;159.03;33.40;;;-2.10;99.90;;;;;;5079929;28;20039;-77
2022/12/10 06:18:23;;;;;;;136.20;30.87;;;-2.10;99.90;;;;;;5109555;28;20039;-78
2022/12/10 06:20:50;;;;;;;278.90;35.83;;;-2.10;99.90;;;;;;5105128;28;20035;-77
2022/12/10 06:23:15;;;;;;;184.13;32.97;;;-2.10;99.90;;;;;;5086060;28;20093;-77
2022/12/10 06:25:41;;;;;;;163.47;32.67;;;-2.10;99.90;;;;;;5103323;28;20404;-77
2022/12/10 06:28:07;;;;;;;130.40;32.80;;;-2.10;99.90;;;;;;5105423;28;20034;-77
2022/12/10 06:30:33;;;;;;;127.30;31.83;;;-2.10;99.90;;;;;;5093270;28;20034;-77
2022/12/10 06:32:59;;;;;;;122.87;32.20;;;-2.10;99.90;;;;;;5110820;28;20033;-77
2022/12/10 06:35:25;;;;;;;185.63;30.73;;;-2.10;99.90;;;;;;5103506;28;20111;-78
2022/12/10 06:37:51;;;;;;;247.13;34.30;;;-2.10;99.90;;;;;;5102046;28;20039;-78
2022/12/10 06:40:17;;;;;;;147.13;31.03;;;-2.10;99.90;;;;;;5100102;28;20224;-78
2022/12/10 06:42:42;;;;;;;117.13;30.17;;;-2.10;99.90;;;;;;5084219;28;20079;-77
2022/12/10 06:45:08;;;;;;;148.20;31.13;;;-2.10;99.90;;;;;;5109176;28;20063;-78
2022/12/10 06:47:34;;;;;;;178.03;30.03;;;-2.10;99.90;;;;;;5108310;28;20039;-78
2022/12/10 06:50:00;;;;;;;122.73;31.97;;;-2.10;99.90;;;;;;5108489;27;20031;-77
2022/12/10 06:52:25;;;;;;;173.57;31.43;;;-2.10;99.90;;;;;;5111204;27;20133;-75
2022/12/10 06:54:51;;;;;;;156.40;31.60;;;-2.10;99.90;;;;;;5107025;27;20187;-78
2022/12/10 06:57:16;;;;;;;188.80;30.97;;;-2.10;99.90;;;;;;5103922;27;20039;-77
2022/12/10 06:59:42;;;;;;;172.17;30.17;;;-2.10;99.90;;;;;;5105086;28;20408;-77
2022/12/10 07:02:09;;;;;;;165.53;31.40;;;-2.10;99.90;;;;;;5108675;27;20072;-77
2022/12/10 07:04:35;;;;;;;253.20;32.70;;;-2.10;99.90;;;;;;5109493;28;20039;-77
2022/12/10 07:07:00;;;;;;;207.00;30.93;;;-2.20;99.90;;;;;;5111096;27;20094;-77
2022/12/10 07:09:26;;;;;;;205.40;31.83;;;-2.10;99.90;;;;;;5125550;27;20424;-77
2022/12/10 07:11:51;;;;;;;168.33;29.07;;;-2.20;99.90;;;;;;5097433;28;20035;-78
2022/12/10 07:14:17;;;;;;;173.50;31.17;;;-2.20;99.90;;;;;;5113023;27;20042;-78
2022/12/10 07:16:43;;;;;;;146.80;29.17;;;-2.20;99.90;;;;;;5107012;27;20043;-78
2022/12/10 07:19:11;;;;;;;140.20;29.73;;;-2.20;99.90;;;;;;5102799;27;20061;-76
2022/12/10 07:21:39;;;;;;;111.47;29.57;;;-2.20;99.90;;;;;;5105530;27;20442;-77
2022/12/10 07:24:07;;;;;;;106.03;29.40;;;-2.20;99.90;;;;;;5084909;27;20031;-77
2022/12/10 07:26:36;;;;;;;119.67;28.57;;;-2.20;99.90;;;;;;5101438;27;20732;-77
2022/12/10 07:29:04;;;;;;;116.83;29.60;;;-2.20;99.90;;;;;;5109157;28;20040;-77
2022/12/10 07:31:31;;;;;;;109.40;28.10;;;-2.30;99.90;;;;;;5115264;27;20080;-77
2022/12/10 07:33:58;;;;;;;186.20;31.27;;;-2.30;99.90;;;;;;5097050;28;20032;-77
2022/12/10 07:36:24;;;;;;;125.50;28.90;;;-2.30;99.90;;;;;;5111131;27;20496;-77
2022/12/10 07:38:53;;;;;;;103.07;27.83;;;-2.30;99.90;;;;;;5096173;27;20035;-77
2022/12/10 07:41:20;;;;;;;143.57;29.30;;;-2.30;99.90;;;;;;5113599;27;20131;-77
2022/12/10 07:43:46;;;;;;;107.67;30.10;;;-2.30;99.90;;;;;;5100478;28;20382;-77
2022/12/10 07:46:24;;;;;;;152.40;30.03;;;-2.30;99.90;;;;;;5095909;28;20606;-77
2022/12/10 07:48:50;;;;;;;138.37;29.73;;;-2.30;99.90;;;;;;5079493;28;20036;-77
2022/12/10 07:51:17;;;;;;;148.40;29.03;;;-2.40;99.90;;;;;;5095463;28;20039;-77
2022/12/10 07:53:43;;;;;;;108.57;27.73;;;-2.40;99.90;;;;;;5096052;28;20370;-76
2022/12/10 07:56:10;;;;;;;113.47;27.87;;;-2.40;99.90;;;;;;5095843;27;20048;-77
2022/12/10 07:58:36;;;;;;;119.47;27.63;;;-2.40;99.90;;;;;;5115151;27;20051;-77
2022/12/10 08:01:14;;;;;;;95.63;29.17;;;-2.40;99.90;;;;;;5102635;28;20073;-77
2022/12/10 08:03:40;;;;;;;112.73;27.90;;;-2.50;99.90;;;;;;5094588;28;20043;-76
2022/12/10 08:06:11;;;;;;;129.13;27.73;;;-2.40;99.90;;;;;;5094320;28;20040;-77
2022/12/10 08:08:38;;;;;;;95.70;27.00;;;-2.50;99.90;;;;;;5095087;28;20040;-76
2022/12/10 08:11:04;;;;;;;110.67;26.93;;;-2.50;99.90;;;;;;5095072;28;20027;-76
2022/12/10 08:13:30;;;;;;;87.20;26.80;;;-2.50;99.90;;;;;;5095195;28;20035;-77
2022/12/10 08:16:06;;;;;;;108.50;28.30;;;-2.40;99.90;;;;;;5093500;28;20042;-77
2022/12/10 08:18:33;;;;;;;81.57;27.00;;;-2.40;99.90;;;;;;5094310;28;20045;-76
2022/12/10 08:21:04;;;;;;;75.50;25.87;;;-2.40;99.90;;;;;;5088789;27;20075;-77
2022/12/10 08:23:30;;;;;;;101.33;27.70;;;-2.40;99.90;;;;;;5106293;28;20408;-77
2022/12/10 08:25:55;;;;;;;78.47;28.00;;;-2.40;99.90;;;;;;5086413;27;20147;-77
2022/12/10 08:28:21;;;;;;;86.00;27.90;;;-2.40;99.90;;;;;;5103746;27;20050;-77
2022/12/10 08:30:48;;;;;;;107.63;25.87;;;-2.40;99.90;;;;;;5122467;27;20039;-76
2022/12/10 08:33:14;;;;;;;112.77;27.73;;;-2.40;99.90;;;;;;5096991;27;20485;-77
2022/12/10 08:35:40;;;;;;;92.23;25.17;;;-2.50;99.90;;;;;;5102986;28;20104;-77
2022/12/10 08:38:05;;;;;;;103.73;25.17;;;-2.50;99.90;;;;;;5128765;27;20042;-76
2022/12/10 08:40:31;;;;;;;87.83;23.07;;;-2.50;99.90;;;;;;5098618;27;20057;-76
2022/12/10 08:42:56;;;;;;;62.00;22.23;;;-2.60;99.90;;;;;;5124027;27;20038;-77
2022/12/10 08:45:22;;;;;;;96.60;23.63;;;-2.50;99.90;;;;;;5090804;27;20050;-77
2022/12/10 08:47:47;;;;;;;61.90;21.23;;;-2.60;99.90;;;;;;5103167;28;20034;-76
2022/12/10 08:50:13;;;;;;;70.07;22.70;;;-2.60;99.90;;;;;;5098575;27;20032;-75
2022/12/10 08:52:38;;;;;;;82.63;23.93;;;-2.60;99.90;;;;;;5105934;27;20023;-77
2022/12/10 08:55:05;;;;;;;146.60;28.67;;;-2.60;99.90;;;;;;5101537;28;20040;-76
2022/12/10 08:57:30;;;;;;;75.23;23.13;;;-2.60;99.90;;;;;;5102297;27;20533;-77
2022/12/10 08:59:55;;;;;;;90.30;23.80;;;-2.60;99.90;;;;;;5098391;28;20031;-76
2022/12/10 09:02:21;;;;;;;82.83;22.77;;;-2.60;99.90;;;;;;5103313;28;20036;-76
2022/12/10 09:04:49;;;;;;;62.03;21.13;;;-2.60;99.90;;;;;;5094189;28;20032;-76
2022/12/10 09:07:14;;;;;;;74.73;22.90;;;-2.60;99.90;;;;;;5093746;28;20031;-76
2022/12/10 09:09:40;;;;;;;81.43;21.97;;;-2.60;99.90;;;;;;5099521;27;20087;-77
2022/12/10 09:12:05;;;;;;;90.60;24.87;;;-2.60;99.90;;;;;;5103707;28;20084;-77
2022/12/10 09:14:31;;;;;;;72.57;23.07;;;-2.60;99.90;;;;;;5107374;27;20027;-76
2022/12/10 09:16:57;;;;;;;73.63;22.87;;;-2.50;99.90;;;;;;5101562;28;20044;-77
2022/12/10 09:19:22;;;;;;;80.70;23.67;;;-2.50;99.90;;;;;;5105495;28;20039;-77
2022/12/10 09:21:48;;;;;;;69.20;23.47;;;-2.40;99.90;;;;;;5103907;28;20083;-77
2022/12/10 09:24:13;;;;;;;76.20;25.40;;;-2.40;99.90;;;;;;5108697;27;20072;-76
2022/12/10 09:26:39;;;;;;;77.73;23.63;;;-2.30;99.90;;;;;;5081651;28;20408;-77
2022/12/10 09:29:04;;;;;;;82.27;24.13;;;-2.30;99.90;;;;;;5110249;27;20617;-76
2022/12/10 09:31:30;;;;;;;81.67;24.87;;;-2.30;99.90;;;;;;5107696;27;20059;-77
2022/12/10 09:33:56;;;;;;;82.43;24.37;;;-2.30;99.90;;;;;;5116501;27;20032;-77
2022/12/10 09:36:22;;;;;;;77.60;24.00;;;-2.30;99.90;;;;;;5102864;27;20054;-77
2022/12/10 09:38:48;;;;;;;82.07;23.20;;;-2.30;99.90;;;;;;5107839;28;20083;-76
2022/12/10 09:41:32;;;;;;;68.30;22.67;;;-2.30;99.90;;;;;;5111546;27;20837;-76
2022/12/10 09:44:05;;;;;;;78.13;25.63;;;-2.30;99.90;;;;;;5106113;28;20043;-76
2022/12/10 09:46:53;;;;;;;88.70;24.13;;;-2.30;99.90;;;;;;5104155;27;20489;-77
2022/12/10 09:49:56;;;;;;;58.60;20.70;;;-2.30;99.90;;;;;;5100462;28;20046;-76
2022/12/10 09:52:24;;;;;;;70.47;23.07;;;-2.30;99.90;;;;;;5109116;28;20038;-77
2022/12/10 09:54:58;;;;;;;69.77;22.40;;;-2.30;99.90;;;;;;5104852;28;20135;-76
2022/12/10 09:57:32;;;;;;;62.57;22.27;;;-2.30;99.90;;;;;;5113079;27;20047;-76
2022/12/10 10:00:04;;;;;;;84.65;23.50;;;-2.30;99.90;;;;;;5095645;27;20035;-77
2022/12/10 10:02:31;;;;;;;83.57;25.83;;;-2.30;99.90;;;;;;5111799;27;20050;-77
2022/12/10 10:05:06;;;;;;;54.40;21.90;;;-2.30;99.90;;;;;;5097180;27;20031;-77
2022/12/10 10:07:33;;;;;;;69.73;23.67;;;-2.20;99.90;;;;;;5101080;27;20152;-77
2022/12/10 10:10:18;;;;;;;57.50;22.33;;;-2.20;99.90;;;;;;5113348;28;20039;-76
2022/12/10 10:12:43;;;;;;;60.83;22.40;;;-2.20;99.90;;;;;;5106388;28;20032;-77
2022/12/10 10:15:25;;;;;;;55.53;22.47;;;-2.20;99.90;;;;;;5100204;27;20041;-77
2022/12/10 10:17:53;;;;;;;63.50;23.60;;;-2.10;99.90;;;;;;5100455;28;20095;-77
2022/12/10 10:20:19;;;;;;;71.60;23.80;;;-2.20;99.90;;;;;;5104496;28;20039;-76
2022/12/10 10:22:45;;;;;;;62.23;23.30;;;-2.10;99.90;;;;;;5110772;28;20042;-76
2022/12/10 10:25:17;;;;;;;66.40;23.57;;;-2.10;99.90;;;;;;5101386;27;20031;-75
2022/12/10 10:27:42;;;;;;;62.63;23.40;;;-2.10;99.90;;;;;;5105788;27;21282;-76
2022/12/10 10:30:16;;;;;;;58.77;23.07;;;-2.10;99.90;;;;;;5111807;27;20043;-76
2022/12/10 10:32:41;;;;;;;62.00;23.27;;;-2.10;99.90;;;;;;5110005;27;20032;-76
2022/12/10 10:35:20;;;;;;;60.03;23.80;;;-2.00;99.90;;;;;;5104691;27;20048;-77
2022/12/10 10:37:46;;;;;;;62.93;21.93;;;-2.00;99.90;;;;;;5104345;27;20038;-76
2022/12/10 10:40:27;;;;;;;60.50;23.03;;;-2.00;99.90;;;;;;5120132;27;20044;-76
2022/12/10 10:42:56;;;;;;;65.77;24.30;;;-1.90;99.90;;;;;;5105350;27;20492;-76
2022/12/10 10:45:41;;;;;;;63.03;24.03;;;-1.90;99.90;;;;;;5106102;27;20043;-76
2022/12/10 10:48:13;;;;;;;54.57;22.70;;;-1.90;99.90;;;;;;5115624;27;20046;-77
2022/12/10 10:50:42;;;;;;;50.57;21.03;;;-1.90;99.90;;;;;;5113225;27;20442;-76
2022/12/10 10:53:29;;;;;;;53.10;22.17;;;-1.90;99.90;;;;;;5116750;27;20496;-76
2022/12/10 10:56:08;;;;;;;53.90;21.07;;;-1.90;99.90;;;;;;5082985;27;20043;-76
2022/12/10 10:58:34;;;;;;;53.07;21.27;;;-1.90;99.90;;;;;;5107449;27;20043;-75
2022/12/10 11:01:04;;;;;;;52.77;21.20;;;-1.90;99.90;;;;;;5085302;27;20151;-75
2022/12/10 11:03:32;;;;;;;58.03;22.57;;;-1.80;99.90;;;;;;5115889;27;20126;-76
2022/12/10 11:05:59;;;;;;;50.77;20.73;;;-1.90;99.90;;;;;;5102421;27;20164;-75
2022/12/10 11:08:28;;;;;;;55.60;22.87;;;-1.80;99.90;;;;;;5098203;28;20112;-76
2022/12/10 11:11:02;;;;;;;58.63;22.10;;;-1.90;99.90;;;;;;5106300;27;20039;-76
2022/12/10 11:13:35;;;;;;;54.73;22.17;;;-1.70;99.90;;;;;;5116056;27;20039;-76
2022/12/10 11:16:23;;;;;;;56.27;22.17;;;-1.60;99.90;;;;;;5114087;27;20046;-76
2022/12/10 11:19:04;;;;;;;65.90;22.43;;;-1.50;99.90;;;;;;5112301;27;20039;-75
2022/12/10 11:21:31;;;;;;;65.63;22.57;;;-1.40;99.90;;;;;;5102303;27;20031;-76
2022/12/10 11:23:58;;;;;;;68.63;23.20;;;-1.40;99.90;;;;;;5108302;27;20067;-76
2022/12/10 11:26:49;;;;;;;63.00;24.07;;;-1.40;99.90;;;;;;5100701;27;20040;-77
2022/12/10 11:29:33;;;;;;;64.90;23.73;;;-1.40;99.90;;;;;;5108667;27;20035;-76
2022/12/10 11:32:12;;;;;;;54.17;22.80;;;-1.40;99.90;;;;;;5109174;27;20031;-78
2022/12/10 11:34:55;;;;;;;61.47;23.87;;;-1.40;99.90;;;;;;5106654;27;20078;-77
2022/12/10 11:37:35;;;;;;;72.73;23.40;;;-1.30;99.90;;;;;;5105984;27;20043;-77
2022/12/10 11:40:14;;;;;;;56.70;21.97;;;-1.30;99.90;;;;;;5097816;27;20039;-76
2022/12/10 11:43:00;;;;;;;60.67;22.60;;;-1.20;99.90;;;;;;5110350;27;20032;-76
2022/12/10 11:45:47;;;;;;;57.17;22.80;;;-1.20;99.90;;;;;;5107062;27;20050;-76
2022/12/10 11:48:38;;;;;;;58.87;23.00;;;-1.30;99.90;;;;;;5112606;27;20450;-76
2022/12/10 11:51:08;;;;;;;65.47;23.67;;;-1.20;99.90;;;;;;5107902;28;20075;-77
2022/12/10 11:54:11;;;;;;;70.83;24.90;;;-1.30;99.90;;;;;;5100688;27;20096;-76
2022/12/10 11:56:44;;;;;;;66.13;22.67;;;-1.20;99.90;;;;;;5102705;27;20038;-76
2022/12/10 11:59:18;;;;;;;56.33;20.52;;;-1.20;99.90;;;;;;5111785;27;20123;-75
2022/12/10 12:01:59;;;;;;;60.08;22.67;;;-1.20;99.90;;;;;;5115153;27;20050;-75
2022/12/10 12:04:39;;;;;;;67.40;22.60;;;-1.20;99.90;;;;;;5088627;27;20043;-75
2022/12/10 12:07:27;;;;;;;57.27;22.73;;;-1.20;99.90;;;;;;5110772;27;20039;-75
2022/12/10 12:10:24;;;;;;;67.87;22.87;;;-1.10;99.90;;;;;;5097063;27;20084;-76
2022/12/10 12:13:04;;;;;;;51.70;22.00;;;-1.10;99.90;;;;;;5107972;27;20084;-76
2022/12/10 12:15:34;;;;;;;58.90;21.80;;;-1.10;99.90;;;;;;5104009;27;20087;-76
2022/12/10 12:18:05;;;;;;;64.10;22.23;;;-1.10;99.90;;;;;;5113931;27;20046;-76
2022/12/10 12:20:43;;;;;;;77.00;24.70;;;-1.10;99.90;;;;;;5114288;27;20051;-76
2022/12/10 12:23:32;;;;;;;69.13;23.27;;;-1.10;99.90;;;;;;5113489;27;20472;-76
2022/12/10 12:26:06;;;;;;;60.60;22.97;;;-1.10;99.90;;;;;;5109118;27;20035;-76
2022/12/10 12:29:01;;;;;;;67.87;21.97;;;-1.10;99.90;;;;;;5106458;27;20454;-76
2022/12/10 12:31:34;;;;;;;63.03;23.87;;;-1.10;99.90;;;;;;5078135;28;20051;-75
2022/12/10 12:34:21;;;;;;;69.90;25.15;;;-1.10;99.90;;;;;;5077098;28;20544;-75
2022/12/10 12:36:47;;;;;;;63.00;23.50;;;-1.00;99.90;;;;;;5103493;27;20039;-76
2022/12/10 12:39:33;;;;;;;70.00;25.77;;;-1.10;99.90;;;;;;5111612;27;20045;-76
2022/12/10 12:42:40;;;;;;;74.97;24.37;;;-1.00;99.90;;;;;;5114861;27;20108;-76
2022/12/10 12:45:20;;;;;;;80.73;25.00;;;-1.00;99.90;;;;;;5117859;27;20038;-76
2022/12/10 12:47:53;;;;;;;72.23;22.30;;;-1.00;99.90;;;;;;5097039;27;20305;-76
2022/12/10 12:50:35;;;;;;;69.90;22.23;;;-1.10;99.90;;;;;;5082031;27;20072;-75